createdAt,value
2019-03-29T00:01:47.436Z,48.54
2019-03-29T00:04:21.432Z,51.89
2019-03-29T00:06:55.446Z,54.20
2019-03-29T00:09:29.463Z,56.11
2019-03-29T00:12:04.830Z,57.99
2019-03-29T00:14:39.147Z,59.04
2019-03-29T00:17:13.190Z,60.20
2019-03-29T00:19:47.178Z,61.22
2019-03-29T00:22:26.768Z,61.81
2019-03-29T00:25:07.093Z,62.82
2019-03-29T00:27:42.602Z,62.08
2019-03-29T00:30:17.808Z,51.91
2019-03-29T00:32:53.584Z,48.92
2019-03-29T00:35:27.567Z,51.82
2019-03-29T00:38:01.660Z,54.06
2019-03-29T00:40:35.980Z,55.84
2019-03-29T00:43:11.399Z,57.03
2019-03-29T00:45:46.052Z,58.25
2019-03-29T00:48:21.977Z,59.22
2019-03-29T00:50:58.328Z,60.20
2019-03-29T00:53:33.013Z,60.95
2019-03-29T00:56:07.033Z,61.75
2019-03-29T00:58:41.076Z,62.65
2019-03-29T01:01:16.097Z,62.12
2019-03-29T01:03:51.584Z,51.35
2019-03-29T01:06:25.698Z,51.18
2019-03-29T01:09:01.256Z,53.74
2019-03-29T01:11:38.070Z,55.86
2019-03-29T01:14:12.226Z,57.46
2019-03-29T01:16:46.223Z,58.70
2019-03-29T01:19:20.263Z,60.03
2019-03-29T01:21:54.260Z,61.12
2019-03-29T01:24:28.382Z,61.80
2019-03-29T01:27:07.534Z,61.52
2019-03-29T01:29:46.457Z,51.04
2019-03-29T01:32:25.862Z,47.99
2019-03-29T01:35:05.771Z,50.92
2019-03-29T01:37:39.774Z,53.11
2019-03-29T01:40:13.858Z,54.89
2019-03-29T01:42:47.972Z,56.26
2019-03-29T01:45:22.032Z,57.49
2019-03-29T01:47:56.128Z,58.75
2019-03-29T01:50:30.409Z,59.87
2019-03-29T01:53:04.421Z,60.88
2019-03-29T01:55:38.463Z,61.74
2019-03-29T01:58:12.602Z,62.74
2019-03-29T02:00:46.728Z,61.92
2019-03-29T02:03:20.897Z,51.23
2019-03-29T02:05:55.045Z,48.11
2019-03-29T02:08:35.587Z,50.79
2019-03-29T02:11:05.452Z,52.91
2019-03-29T02:13:39.393Z,54.63
2019-03-29T02:16:14.459Z,55.50
2019-03-29T02:18:48.523Z,55.89
2019-03-29T02:21:22.874Z,56.85
2019-03-29T02:23:57.091Z,57.54
2019-03-29T02:26:31.395Z,58.00
2019-03-29T02:29:05.385Z,58.54
2019-03-29T02:31:42.167Z,59.25
2019-03-29T02:34:16.069Z,59.93
2019-03-29T02:36:50.412Z,59.82
2019-03-29T02:39:24.447Z,60.52
2019-03-29T02:41:58.632Z,60.87
2019-03-29T02:44:34.845Z,61.02
2019-03-29T02:47:08.398Z,61.59
2019-03-29T02:49:43.487Z,61.97
2019-03-29T02:52:17.920Z,62.19
2019-03-29T02:54:51.916Z,61.96
2019-03-29T02:57:25.966Z,50.68
2019-03-29T03:00:01.091Z,46.25
2019-03-29T03:02:35.472Z,48.96
2019-03-29T03:05:10.051Z,50.58
2019-03-29T03:07:44.095Z,52.41
2019-03-29T03:10:18.184Z,53.23
2019-03-29T03:12:52.174Z,54.22
2019-03-29T03:15:26.164Z,54.89
2019-03-29T03:18:00.340Z,55.73
2019-03-29T03:20:34.326Z,56.24
2019-03-29T03:23:08.348Z,57.06
2019-03-29T03:25:42.523Z,57.75
2019-03-29T03:28:16.551Z,58.48
2019-03-29T03:30:50.684Z,59.08
2019-03-29T03:33:24.796Z,60.06
2019-03-29T03:35:58.796Z,60.48
2019-03-29T03:38:33.029Z,60.88
2019-03-29T03:41:07.669Z,61.37
2019-03-29T03:43:42.806Z,61.98
2019-03-29T03:46:16.913Z,62.69
2019-03-29T03:48:50.983Z,52.27
2019-03-29T03:51:25.117Z,48.10
2019-03-29T03:53:59.775Z,50.49
2019-03-29T03:56:33.783Z,52.63
2019-03-29T03:59:07.811Z,54.20
2019-03-29T04:01:41.744Z,55.63
2019-03-29T04:04:15.778Z,56.75
2019-03-29T04:06:49.820Z,57.99
2019-03-29T04:09:24.882Z,59.10
2019-03-29T04:11:58.942Z,59.95
2019-03-29T04:14:33.010Z,60.83
2019-03-29T04:17:08.013Z,61.69
2019-03-29T04:19:42.102Z,62.34
2019-03-29T04:22:16.103Z,62.54
2019-03-29T04:24:50.281Z,51.80
2019-03-29T04:27:24.279Z,48.24
2019-03-29T04:29:58.327Z,50.92
2019-03-29T04:32:32.423Z,53.16
2019-03-29T04:35:06.436Z,54.93
2019-03-29T04:37:40.662Z,56.43
2019-03-29T04:40:14.679Z,57.56
2019-03-29T04:42:48.741Z,58.77
2019-03-29T04:45:22.779Z,59.73
2019-03-29T04:47:56.769Z,60.70
2019-03-29T04:50:30.776Z,61.52
2019-03-29T04:53:04.825Z,62.45
2019-03-29T04:55:38.993Z,62.28
2019-03-29T04:58:12.998Z,51.58
2019-03-29T05:00:47.370Z,48.32
2019-03-29T05:03:21.568Z,50.89
2019-03-29T05:05:56.035Z,53.14
2019-03-29T05:08:30.173Z,54.94
2019-03-29T05:11:04.345Z,56.46
2019-03-29T05:13:40.290Z,57.92
2019-03-29T05:16:14.430Z,59.20
2019-03-29T05:18:48.626Z,60.30
2019-03-29T05:21:22.662Z,61.30
2019-03-29T05:23:56.761Z,62.16
2019-03-29T05:26:30.920Z,62.46
2019-03-29T05:29:04.999Z,52.20
2019-03-29T05:31:39.136Z,48.73
2019-03-29T05:34:20.418Z,51.71
2019-03-29T05:36:58.545Z,54.16
2019-03-29T05:39:32.839Z,56.15
2019-03-29T05:42:06.981Z,57.70
2019-03-29T05:44:41.140Z,59.01
2019-03-29T05:47:15.195Z,60.29
2019-03-29T05:49:49.350Z,61.06
2019-03-29T05:52:23.552Z,62.26
2019-03-29T05:54:57.606Z,62.48
2019-03-29T05:57:32.896Z,52.16
2019-03-29T06:00:07.749Z,49.24
2019-03-29T06:02:42.046Z,52.01
2019-03-29T06:05:18.660Z,54.51
2019-03-29T06:09:14.765Z,56.42
2019-03-29T06:12:06.699Z,58.40
2019-03-29T06:14:41.866Z,59.97
2019-03-29T06:17:15.927Z,61.05
2019-03-29T06:19:50.130Z,62.12
2019-03-29T06:22:53.389Z,61.95
2019-03-29T06:25:32.966Z,50.10
2019-03-29T06:28:07.354Z,47.94
2019-03-29T06:30:41.368Z,50.39
2019-03-29T06:33:16.589Z,52.97
2019-03-29T06:35:50.676Z,54.52
2019-03-29T06:38:25.069Z,55.94
2019-03-29T06:41:03.210Z,57.13
2019-03-29T06:43:35.736Z,58.41
2019-03-29T06:46:10.850Z,59.09
2019-03-29T06:48:44.990Z,59.67
2019-03-29T06:51:19.456Z,61.01
2019-03-29T06:53:53.668Z,61.62
2019-03-29T06:56:28.072Z,62.60
2019-03-29T06:59:02.106Z,60.91
2019-03-29T07:01:37.286Z,50.65
2019-03-29T07:04:11.957Z,46.85
2019-03-29T07:06:46.100Z,49.45
2019-03-29T07:09:20.241Z,50.28
2019-03-29T07:11:54.575Z,52.14
2019-03-29T07:14:28.639Z,52.86
2019-03-29T07:17:04.055Z,53.29
2019-03-29T07:19:38.326Z,54.63
2019-03-29T07:22:12.503Z,55.22
2019-03-29T07:24:46.565Z,55.42
2019-03-29T07:27:20.743Z,55.10
2019-03-29T07:29:55.270Z,55.61
2019-03-29T07:32:37.416Z,56.24
2019-03-29T07:35:09.971Z,56.73
2019-03-29T07:37:53.044Z,57.34
2019-03-29T07:40:35.207Z,57.27
2019-03-29T07:43:09.395Z,57.90
2019-03-29T07:46:01.723Z,58.38
2019-03-29T07:48:35.850Z,57.89
2019-03-29T07:51:10.017Z,58.53
2019-03-29T07:53:45.383Z,58.17
2019-03-29T07:56:21.755Z,58.52
2019-03-29T07:59:04.635Z,58.90
2019-03-29T08:01:38.654Z,58.84
2019-03-29T08:07:37.000Z,59.13
2019-03-29T08:10:27.537Z,59.22
2019-03-29T08:13:01.574Z,59.60
2019-03-29T08:15:35.664Z,59.77
2019-03-29T08:18:13.997Z,60.15
2019-03-29T08:20:49.881Z,60.26
2019-03-29T08:23:28.510Z,60.67
2019-03-29T08:26:00.902Z,60.70
2019-03-29T17:19:41.911Z,62.54
2019-03-29T17:22:20.552Z,61.63
2019-03-29T17:24:57.466Z,50.68
2019-03-29T17:27:35.180Z,47.13
2019-03-29T17:30:17.025Z,49.38
2019-03-29T17:32:56.612Z,51.25
2019-03-29T17:35:34.101Z,52.57
2019-03-29T17:42:00.092Z,54.35
2019-03-29T17:44:35.238Z,55.10
2019-03-29T17:47:09.319Z,55.81
2019-03-29T17:49:43.392Z,56.38
2019-03-29T17:52:17.550Z,56.70
2019-03-29T17:54:51.527Z,57.32
2019-03-29T17:57:25.656Z,57.97
2019-03-29T17:59:59.774Z,58.52
2019-03-29T18:02:34.030Z,58.98
2019-03-29T18:05:08.616Z,59.40
2019-03-29T18:07:43.248Z,59.71
2019-03-29T18:10:17.390Z,60.02
2019-03-29T18:12:53.086Z,60.44
2019-03-29T18:15:27.181Z,60.75
2019-03-29T18:18:01.383Z,60.66
2019-03-29T18:20:35.496Z,60.77
2019-03-29T18:23:09.510Z,61.30
2019-03-29T18:25:44.485Z,61.87
2019-03-29T18:28:19.196Z,61.94
2019-03-29T18:30:53.554Z,62.06
2019-03-29T18:33:27.676Z,62.40
2019-03-29T18:36:01.766Z,61.76
2019-03-29T18:38:36.837Z,51.24
2019-03-29T18:41:10.718Z,47.82
2019-03-29T18:43:44.915Z,49.40
2019-03-29T18:46:19.085Z,51.52
2019-03-29T18:48:53.119Z,52.83
2019-03-29T18:51:27.059Z,53.67
2019-03-29T18:54:00.932Z,54.38
2019-03-29T18:56:36.595Z,55.18
2019-03-29T18:59:13.641Z,55.92
2019-03-29T19:01:47.619Z,56.84
2019-03-29T19:04:21.607Z,57.30
2019-03-29T19:06:55.669Z,57.58
2019-03-29T19:09:31.696Z,58.18
2019-03-29T19:12:05.140Z,59.73
2019-03-29T19:14:41.608Z,59.25
2019-03-29T19:17:14.999Z,59.36
2019-03-29T19:19:48.967Z,59.71
2019-03-29T19:22:22.861Z,60.16
2019-03-29T19:24:56.718Z,60.39
2019-03-29T19:27:31.660Z,60.68
2019-03-29T19:30:05.642Z,61.03
2019-03-29T19:32:39.844Z,61.46
2019-03-29T19:35:13.764Z,61.76
2019-03-29T19:37:47.673Z,62.08
2019-03-29T19:40:28.552Z,61.52
2019-03-29T19:43:02.619Z,50.54
2019-03-29T19:45:36.553Z,46.61
2019-03-29T19:48:11.097Z,49.14
2019-03-29T19:50:45.577Z,50.97
2019-03-29T19:53:20.344Z,52.38
2019-03-29T19:55:54.387Z,53.33
2019-03-29T19:58:28.425Z,54.31
2019-03-29T20:01:02.462Z,55.55
2019-03-29T20:03:36.708Z,56.00
2019-03-29T20:06:10.853Z,56.45
2019-03-29T20:08:44.891Z,57.18
2019-03-29T20:11:18.924Z,57.74
2019-03-29T20:13:54.444Z,58.28
2019-03-29T20:16:29.657Z,58.74
2019-03-29T20:19:05.351Z,59.33
2019-03-29T20:21:40.522Z,59.87
2019-03-29T20:24:16.586Z,60.38
2019-03-29T20:26:54.428Z,60.87
2019-03-29T20:29:28.659Z,61.30
2019-03-29T20:32:02.838Z,61.79
2019-03-29T20:34:36.904Z,62.13
2019-03-29T20:37:11.008Z,62.01
2019-03-29T20:39:45.033Z,51.20
2019-03-29T20:42:19.066Z,47.30
2019-03-29T20:44:53.767Z,49.46
2019-03-29T20:47:41.047Z,51.33
2019-03-29T20:50:03.340Z,52.74
2019-03-29T20:52:38.331Z,54.04
2019-03-29T20:55:12.190Z,54.84
2019-03-29T20:57:46.740Z,55.60
2019-03-29T21:00:21.465Z,56.40
2019-03-29T21:02:55.451Z,57.08
2019-03-29T21:05:29.512Z,57.78
2019-03-29T21:08:03.670Z,58.48
2019-03-29T21:10:37.702Z,58.92
2019-03-29T21:13:11.789Z,59.60
2019-03-29T21:15:45.866Z,59.91
2019-03-29T21:18:20.611Z,60.36
2019-03-29T21:20:55.278Z,60.95
2019-03-29T21:23:29.337Z,61.30
2019-03-29T21:26:03.272Z,61.83
2019-03-29T21:28:38.362Z,62.29
2019-03-29T21:31:12.698Z,62.04
2019-03-29T21:33:46.734Z,51.55
2019-03-29T21:36:21.726Z,47.87
2019-03-29T21:38:55.747Z,50.31
2019-03-29T21:41:29.789Z,51.92
2019-03-29T21:44:03.720Z,53.31
2019-03-29T21:46:38.163Z,54.38
2019-03-29T21:49:11.895Z,55.32
2019-03-29T21:51:45.805Z,56.05
2019-03-29T21:54:19.532Z,56.91
2019-03-29T21:56:53.349Z,57.72
2019-03-29T21:59:27.190Z,59.40
2019-03-29T22:02:01.059Z,59.64
2019-03-29T22:04:34.894Z,59.79
2019-03-29T22:07:08.728Z,60.40
2019-03-29T22:09:42.537Z,60.77
2019-03-29T22:12:16.309Z,61.27
2019-03-29T22:14:50.162Z,61.82
2019-03-29T22:17:24.410Z,62.20
2019-03-29T22:19:58.206Z,62.12
2019-03-29T22:22:32.036Z,51.55
2019-03-29T22:25:06.301Z,47.66
2019-03-29T22:27:40.037Z,49.51
2019-03-29T22:30:14.167Z,51.53
2019-03-29T22:32:48.179Z,53.10
2019-03-29T22:35:21.990Z,54.12
2019-03-29T22:37:55.727Z,55.13
2019-03-29T22:40:29.551Z,56.09
2019-03-29T22:43:03.380Z,56.82
2019-03-29T22:45:37.189Z,57.56
2019-03-29T22:48:11.057Z,58.32
2019-03-29T22:50:44.902Z,59.02
2019-03-29T22:53:18.722Z,59.25
2019-03-29T22:55:52.534Z,59.74
2019-03-29T22:58:28.511Z,60.33
2019-03-29T23:01:01.977Z,60.81
2019-03-29T23:03:35.806Z,61.20
2019-03-29T23:06:09.716Z,61.61
2019-03-29T23:08:43.535Z,61.82
2019-03-29T23:11:17.381Z,62.19
2019-03-29T23:13:51.183Z,62.30
2019-03-29T23:16:25.007Z,50.76
2019-03-29T23:19:06.362Z,46.68
2019-03-29T23:21:34.318Z,48.81
2019-03-29T23:24:08.266Z,50.82
2019-03-29T23:26:42.048Z,52.39
2019-03-29T23:29:15.924Z,53.58
2019-03-29T23:31:49.810Z,54.65
2019-03-29T23:34:23.627Z,55.52
2019-03-29T23:36:58.638Z,56.31
2019-03-29T23:39:32.518Z,57.16
2019-03-29T23:42:06.404Z,57.81
2019-03-29T23:44:40.237Z,58.31
2019-03-29T23:47:14.170Z,59.02
2019-03-29T23:49:48.102Z,59.75
2019-03-29T23:52:21.881Z,60.41
2019-03-29T23:54:55.709Z,60.98
2019-03-29T23:57:29.508Z,61.73
